Time;durP1;ratioP1;P1;durP2;ratioP2;P2;SDS_P1;SDS_P2;PMS_P1;PMS_P2;Temp;Humidity;BMP_temperature;BMP_pressure;BME280_temperature;BME280_humidity;BME280_pressure;Samples;Min_cycle;Max_cycle;Signal;HPM_P1;HPM_P2
2022/07/12 00:00:52;;;;;;;2.20;2.10;;;;;;;15.52;76.36;94584.84;5047369;28;20216;-56
2022/07/12 00:03:36;;;;;;;2.60;2.10;;;;;;;15.58;76.11;94587.31;5052307;28;20225;-56
2022/07/12 00:06:20;;;;;;;4.50;2.10;;;;;;;15.55;76.13;94583.66;5050411;28;20224;-55
2022/07/12 00:09:05;;;;;;;5.87;2.00;;;;;;;15.36;76.18;94586.63;5048162;28;20336;-55
2022/07/12 00:11:49;;;;;;;2.67;2.07;;;;;;;15.26;76.71;94591.59;5043775;28;20647;-56
2022/07/12 00:14:33;;;;;;;2.10;2.00;;;;;;;15.21;77.16;94590.63;5044124;28;20518;-56
2022/07/12 00:17:17;;;;;;;2.77;2.20;;;;;;;15.43;76.12;94582.09;5050704;28;20213;-56
2022/07/12 00:20:01;;;;;;;2.43;2.23;;;;;;;15.56;75.52;94587.19;5048566;28;20197;-55
2022/07/12 00:22:46;;;;;;;2.30;2.10;;;;;;;15.49;75.61;94594.50;5049962;28;20213;-56
2022/07/12 00:25:30;;;;;;;4.63;2.50;;;;;;;15.54;75.65;94587.06;5047857;28;20698;-56
2022/07/12 00:28:15;;;;;;;2.43;2.23;;;;;;;15.50;75.46;94590.34;5053983;28;20685;-56
2022/07/12 00:30:59;;;;;;;4.13;2.17;;;;;;;15.49;75.20;94590.97;5054249;28;20264;-56
2022/07/12 00:33:44;;;;;;;2.47;2.27;;;;;;;15.46;75.45;94578.78;5049552;28;20216;-55
2022/07/12 00:36:29;;;;;;;3.33;2.40;;;;;;;15.54;75.32;94587.06;5053880;28;20193;-55
2022/07/12 00:39:12;;;;;;;2.87;2.30;;;;;;;15.49;75.10;94586.03;5052999;28;20226;-55
2022/07/12 00:41:56;;;;;;;2.60;2.40;;;;;;;15.27;76.21;94581.78;5051426;28;20217;-55
2022/07/12 00:44:40;;;;;;;2.40;2.20;;;;;;;15.09;76.35;94583.44;5052856;28;21038;-55
2022/07/12 00:47:30;;;;;;;5.13;2.50;;;;;;;14.75;78.38;94582.66;5051069;28;20204;-55
2022/07/12 00:50:17;;;;;;;2.80;2.43;;;;;;;14.95;77.67;94581.16;5052904;28;20251;-55
2022/07/12 00:53:01;;;;;;;2.60;2.30;;;;;;;15.05;76.96;94583.19;5050819;28;20740;-56
2022/07/12 00:55:46;;;;;;;4.30;2.53;;;;;;;15.11;76.54;94589.22;5048036;28;20281;-55
2022/07/12 00:58:30;;;;;;;2.87;2.60;;;;;;;15.16;76.50;94576.84;5049120;28;21164;-56
2022/07/12 01:01:13;;;;;;;6.53;2.80;;;;;;;15.06;77.10;94579.03;5052640;28;20201;-56
2022/07/12 01:03:58;;;;;;;2.60;2.40;;;;;;;15.06;76.99;94579.03;5051097;28;20217;-55
2022/07/12 01:06:42;;;;;;;2.80;2.60;;;;;;;15.10;77.05;94574.38;5051148;28;20670;-56
2022/07/12 01:09:27;;;;;;;2.87;2.50;;;;;;;16.35;73.88;94581.53;5054081;28;20764;-56
2022/07/12 01:12:12;;;;;;;2.83;2.30;;;;;;;15.20;75.87;94577.84;5051186;28;20249;-56
2022/07/12 01:14:58;;;;;;;4.43;2.70;;;;;;;15.21;76.36;94567.28;5054045;28;20282;-56
2022/07/12 01:17:44;;;;;;;2.43;2.13;;;;;;;15.24;76.44;94571.72;5053353;28;20236;-55
2022/07/12 01:20:29;;;;;;;3.50;2.27;;;;;;;15.20;76.27;94577.09;5053380;28;20725;-55
2022/07/12 01:23:14;;;;;;;4.80;2.40;;;;;;;15.29;76.29;94574.19;5050331;28;20260;-56
2022/07/12 01:25:58;;;;;;;3.20;2.53;;;;;;;15.45;76.00;94573.75;5053531;28;20698;-56
2022/07/12 01:28:42;;;;;;;3.57;2.60;;;;;;;15.60;75.36;94579.72;5053643;28;20287;-56
2022/07/12 01:31:26;;;;;;;7.47;2.77;;;;;;;15.66;74.45;94582.94;5051690;28;20197;-55
2022/07/12 01:34:10;;;;;;;3.13;2.70;;;;;;;15.86;74.27;94594.03;5052607;28;20208;-55
2022/07/12 01:36:54;;;;;;;4.67;2.00;;;;;;;15.88;74.12;94592.06;5052706;28;20229;-54
2022/07/12 01:39:38;;;;;;;2.57;2.37;;;;;;;15.86;74.10;94582.72;5046602;28;20253;-56
2022/07/12 01:42:24;;;;;;;2.80;2.40;;;;;;;15.88;74.25;94586.41;5048370;28;20229;-56
2022/07/12 01:45:08;;;;;;;4.67;2.50;;;;;;;15.94;73.90;94588.88;5053594;28;20646;-56
2022/07/12 01:47:53;;;;;;;3.23;2.67;;;;;;;15.81;74.33;94581.72;5049573;28;20213;-55
2022/07/12 01:50:37;;;;;;;3.93;2.53;;;;;;;16.33;72.58;94584.22;5050041;28;20757;-55
2022/07/12 01:53:22;;;;;;;2.50;2.30;;;;;;;16.30;72.38;94582.59;5045817;28;20206;-55
2022/07/12 01:56:06;;;;;;;3.20;2.17;;;;;;;16.20;72.79;94570.69;5060778;28;20197;-55
2022/07/12 01:58:50;;;;;;;3.27;2.97;;;;;;;16.07;73.76;94585.44;5054406;28;20690;-56
2022/07/12 02:01:37;;;;;;;2.40;2.13;;;;;;;16.05;73.34;94588.13;5045522;28;20248;-55
2022/07/12 02:04:21;;;;;;;2.93;2.70;;;;;;;15.87;73.78;94587.00;5053136;28;20765;-55
2022/07/12 02:07:06;;;;;;;3.20;2.37;;;;;;;15.98;73.19;94583.47;5053521;28;20208;-56
2022/07/12 02:09:50;;;;;;;4.33;2.80;;;;;;;15.77;74.25;94584.31;5048224;28;20311;-56
2022/07/12 02:12:36;;;;;;;2.87;2.47;;;;;;;15.70;73.52;94588.84;5050801;28;20682;-55
2022/07/12 02:15:20;;;;;;;5.03;2.30;;;;;;;15.51;74.37;94588.25;5052880;28;20201;-55
2022/07/12 02:18:04;;;;;;;4.67;2.33;;;;;;;15.48;75.02;94584.56;5051441;28;20216;-55
2022/07/12 02:20:48;;;;;;;2.50;2.27;;;;;;;15.45;74.74;94577.31;5048832;28;20243;-56
2022/07/12 02:23:32;;;;;;;2.50;2.30;;;;;;;15.42;74.40;94581.38;5045822;28;20290;-55
2022/07/12 02:26:16;;;;;;;4.43;2.50;;;;;;;15.41;74.45;94579.88;5052521;28;20198;-56
2022/07/12 02:29:00;;;;;;;6.27;2.30;;;;;;;15.36;74.27;94580.97;5051884;28;20244;-55
2022/07/12 02:31:45;;;;;;;2.43;2.10;;;;;;;14.50;76.94;94582.41;5050526;28;20285;-55
2022/07/12 02:34:30;;;;;;;3.10;2.77;;;;;;;14.37;78.73;94580.06;5050865;28;20217;-55
2022/07/12 02:37:14;;;;;;;2.40;2.20;;;;;;;14.36;78.25;94578.56;5051770;28;20205;-56
2022/07/12 02:43:01;;;;;;;5.37;2.83;;;;;;;14.32;79.05;94578.31;5047457;28;20297;-55
2022/07/12 02:45:45;;;;;;;3.90;2.80;;;;;;;14.16;79.84;94578.69;5054319;28;20204;-55
2022/07/12 02:48:29;;;;;;;8.07;2.53;;;;;;;14.03;80.22;94576.34;5045828;28;20216;-56
2022/07/12 02:51:13;;;;;;;3.40;2.67;;;;;;;14.49;78.34;94578.09;5050072;28;20272;-56
2022/07/12 02:53:59;;;;;;;2.90;2.70;;;;;;;14.58;77.33;94577.28;5050153;28;20202;-55
2022/07/12 02:56:43;;;;;;;2.87;2.43;;;;;;;14.49;76.72;94572.44;5052096;28;20290;-55
2022/07/12 02:59:27;;;;;;;4.27;3.00;;;;;;;14.11;78.88;94576.94;5050148;28;20217;-55
2022/07/12 03:02:11;;;;;;;5.87;2.73;;;;;;;14.09;78.77;94579.59;5049737;28;20205;-55
2022/07/12 03:04:55;;;;;;;5.63;2.73;;;;;;;14.30;77.62;94575.34;5051895;28;20205;-55
2022/07/12 03:07:39;;;;;;;4.50;3.70;;;;;;;14.22;78.18;94581.16;5049481;28;20201;-55
2022/07/12 03:10:22;;;;;;;5.47;3.70;;;;;;;14.03;78.74;94576.34;5043402;28;20306;-55
2022/07/12 03:13:07;;;;;;;8.07;3.10;;;;;;;13.92;78.89;94570.63;5049651;28;20214;-55
2022/07/12 03:15:51;;;;;;;3.80;3.50;;;;;;;13.87;79.34;94575.25;5051973;28;20716;-55
2022/07/12 03:18:35;;;;;;;4.30;3.87;;;;;;;13.72;82.07;94579.16;5045647;28;20205;-55
2022/07/12 03:21:18;;;;;;;6.77;3.60;;;;;;;13.91;83.58;94583.22;5048134;28;20678;-56
2022/07/12 03:24:02;;;;;;;6.90;3.87;;;;;;;13.89;79.94;94581.00;5048921;28;20270;-56
2022/07/12 03:26:47;;;;;;;6.67;4.30;;;;;;;13.78;81.67;94587.28;5040047;28;20629;-55
2022/07/12 03:29:31;;;;;;;3.77;3.47;;;;;;;13.72;80.93;94581.22;5048325;28;20229;-55
2022/07/12 03:32:15;;;;;;;3.70;3.40;;;;;;;13.72;80.41;94586.84;5050471;28;21674;-55
2022/07/12 03:34:59;;;;;;;4.37;3.30;;;;;;;13.80;78.73;94587.44;5046939;28;20209;-55
2022/07/12 03:37:49;;;;;;;5.93;2.87;;;;;;;13.66;78.21;94583.59;5050618;28;20202;-55
2022/07/12 03:40:34;;;;;;;3.40;3.10;;;;;;;13.71;78.09;94591.75;5050750;28;20229;-55
2022/07/12 03:43:18;;;;;;;4.93;3.03;;;;;;;13.77;77.34;94589.34;5049444;28;20205;-55
2022/07/12 03:46:02;;;;;;;5.43;3.10;;;;;;;13.88;76.79;94587.25;5050437;28;20228;-55
2022/07/12 03:48:46;;;;;;;4.27;2.57;;;;;;;14.01;75.92;94584.66;5051095;28;20303;-55
2022/07/12 03:51:30;;;;;;;8.73;2.50;;;;;;;13.87;76.27;94592.16;5045496;28;20253;-55
2022/07/12 03:54:14;;;;;;;5.23;3.47;;;;;;;14.06;75.34;94592.09;5050480;28;20682;-55
2022/07/12 03:57:13;;;;;;;4.47;2.67;;;;;;;14.11;74.71;94593.84;5050488;28;20205;-55
2022/07/12 03:59:58;;;;;;;6.23;3.23;;;;;;;14.34;74.63;94592.53;5048068;28;20221;-56
2022/07/12 04:02:42;;;;;;;3.10;2.90;;;;;;;14.62;73.12;94590.91;5049764;28;20205;-56
2022/07/12 04:05:27;;;;;;;4.83;2.83;;;;;;;15.26;71.83;94591.59;5054076;28;20255;-55
2022/07/12 04:08:11;;;;;;;4.60;2.90;;;;;;;16.63;66.71;94610.06;5044125;28;20257;-55
2022/07/12 04:10:55;;;;;;;3.07;2.20;;;;;;;17.43;63.00;94608.38;5050603;28;20225;-55
2022/07/12 04:13:39;;;;;;;3.40;2.30;;;;;;;17.79;61.45;94596.25;5048265;28;20198;-55
2022/07/12 04:16:23;;;;;;;3.37;2.03;;;;;;;17.13;62.10;94612.31;5050579;28;20197;-55
2022/07/12 04:19:10;;;;;;;5.57;2.57;;;;;;;17.25;62.13;94605.25;5050851;28;20208;-56
2022/07/12 04:21:57;;;;;;;4.50;2.30;;;;;;;16.10;66.11;94612.50;5039434;28;20209;-55
2022/07/12 04:24:41;;;;;;;3.53;2.13;;;;;;;16.04;66.02;94609.28;5049590;28;20197;-55
2022/07/12 04:27:26;;;;;;;3.03;2.53;;;;;;;16.56;65.55;94609.66;5051015;28;20201;-55
2022/07/12 04:30:10;;;;;;;5.07;2.40;;;;;;;17.06;64.01;94608.38;5050945;28;20229;-55
2022/07/12 04:32:54;;;;;;;3.83;2.00;;;;;;;18.13;60.83;94614.44;5042745;28;20201;-55
2022/07/12 04:35:38;;;;;;;3.80;2.13;;;;;;;19.96;54.74;94612.38;5044363;28;20275;-56
2022/07/12 04:38:22;;;;;;;2.17;1.97;;;;;;;18.71;57.29;94613.25;5049346;28;20205;-56
2022/07/12 04:41:06;;;;;;;3.67;2.40;;;;;;;17.57;61.94;94614.09;5044315;28;20581;-55
2022/07/12 04:43:50;;;;;;;3.40;2.37;;;;;;;17.15;63.71;94618.81;5047805;28;20208;-55
2022/07/12 04:46:34;;;;;;;3.20;2.10;;;;;;;17.40;63.57;94612.47;5049547;28;20229;-56
2022/07/12 04:49:19;;;;;;;2.40;2.20;;;;;;;17.82;62.20;94613.41;5050307;28;20755;-55
2022/07/12 04:52:03;;;;;;;2.40;2.20;;;;;;;17.85;61.54;94610.03;5045684;28;20682;-55
2022/07/12 04:54:47;;;;;;;5.77;3.03;;;;;;;17.90;63.08;94611.72;5049731;28;20206;-55
2022/07/12 04:57:32;;;;;;;4.87;4.37;;;;;;;18.56;61.15;94614.63;5043938;28;20584;-55
2022/07/12 05:00:16;;;;;;;4.13;3.57;;;;;;;18.10;63.38;94614.94;5046341;28;20248;-55
2022/07/12 05:02:59;;;;;;;9.30;4.50;;;;;;;17.81;65.09;94618.31;5045362;28;20283;-56
2022/07/12 05:05:43;;;;;;;6.40;4.70;;;;;;;17.83;66.28;94626.22;5045981;28;20706;-55
2022/07/12 05:08:27;;;;;;;10.07;4.50;;;;;;;17.89;66.91;94624.44;5049167;28;20209;-55
2022/07/12 05:11:11;;;;;;;13.90;6.10;;;;;;;18.43;66.39;94628.78;5053624;28;20221;-55
2022/07/12 05:13:55;;;;;;;8.03;5.30;;;;;;;19.38;66.84;94628.75;5052629;28;20209;-56
2022/07/12 05:16:39;;;;;;;4.80;4.40;;;;;;;18.68;67.36;94634.41;5052234;28;20209;-55
2022/07/12 05:19:23;;;;;;;8.67;4.23;;;;;;;18.42;69.59;94632.97;5056464;28;20208;-55
2022/07/12 05:22:07;;;;;;;5.77;4.70;;;;;;;17.98;71.70;94637.69;5045610;28;20202;-55
2022/07/12 05:24:51;;;;;;;7.70;4.63;;;;;;;17.97;73.89;94635.47;5052421;28;20213;-55
2022/07/12 05:27:35;;;;;;;13.17;5.83;;;;;;;18.06;72.70;94638.16;5053595;28;20576;-55
2022/07/12 05:30:21;;;;;;;6.37;5.70;;;;;;;18.26;71.70;94637.78;5045439;28;20344;-55
2022/07/12 05:33:05;;;;;;;8.07;5.30;;;;;;;19.74;66.99;94635.53;5050553;28;20623;-55
2022/07/12 05:35:49;;;;;;;6.57;4.53;;;;;;;18.97;69.33;94645.84;5052700;28;20205;-55
2022/07/12 05:38:33;;;;;;;6.17;5.23;;;;;;;19.97;65.26;94639.44;5043840;28;21402;-55
2022/07/12 05:41:16;;;;;;;6.70;5.27;;;;;;;18.93;68.74;94651.34;5052409;28;20289;-55
2022/07/12 05:44:00;;;;;;;7.47;4.83;;;;;;;18.99;68.84;94643.13;5051644;28;20260;-55
2022/07/12 05:46:47;;;;;;;5.80;4.73;;;;;;;19.82;67.95;94640.13;5052429;28;20205;-55
2022/07/12 05:49:31;;;;;;;4.93;4.53;;;;;;;19.03;67.57;94644.69;5044750;28;20245;-55
2022/07/12 05:55:18;;;;;;;6.00;4.40;;;;;;;20.25;65.88;94643.59;5052198;28;20209;-55
2022/07/12 05:58:03;;;;;;;8.13;5.00;;;;;;;19.87;66.11;94653.19;5045695;28;20202;-55
2022/07/12 06:00:47;;;;;;;5.93;4.77;;;;;;;20.13;64.98;94665.81;5050725;28;20241;-55
2022/07/12 06:03:32;;;;;;;5.37;3.97;;;;;;;20.33;63.28;94657.53;5051570;28;20642;-54
2022/07/12 06:06:15;;;;;;;5.00;4.50;;;;;;;20.57;63.08;94659.38;5048545;28;20210;-55
2022/07/12 06:08:59;;;;;;;3.90;3.27;;;;;;;20.84;60.73;94667.00;5057777;28;20237;-55
2022/07/12 06:11:43;;;;;;;6.57;4.17;;;;;;;20.79;61.81;94673.16;5051021;28;20232;-55
2022/07/12 06:14:27;;;;;;;5.70;3.80;;;;;;;20.80;62.15;94660.41;5051487;28;20267;-55
2022/07/12 06:17:12;;;;;;;4.43;4.03;;;;;;;20.98;62.22;94664.06;5052506;28;20658;-55
2022/07/12 06:19:55;;;;;;;6.60;4.50;;;;;;;21.11;61.20;94665.34;5048809;28;20210;-55
2022/07/12 06:22:39;;;;;;;4.03;3.63;;;;;;;21.21;59.96;94669.38;5048520;28;20630;-55
2022/07/12 06:25:24;;;;;;;4.43;4.00;;;;;;;21.16;59.45;94670.59;5051390;28;20233;-55
2022/07/12 06:28:08;;;;;;;3.93;3.50;;;;;;;21.47;58.09;94671.91;5044398;28;20295;-55
2022/07/12 06:30:52;;;;;;;3.47;3.17;;;;;;;21.55;56.69;94672.22;5049604;28;20275;-55
2022/07/12 06:33:36;;;;;;;4.63;4.07;;;;;;;21.16;57.50;94667.75;5052123;28;20836;-55
2022/07/12 06:36:19;;;;;;;4.20;3.90;;;;;;;21.56;57.05;94668.72;5051244;28;20270;-55
2022/07/12 06:39:03;;;;;;;4.13;3.73;;;;;;;21.78;55.48;94666.09;5049968;28;20212;-55
2022/07/12 06:41:47;;;;;;;5.03;3.43;;;;;;;22.03;54.31;94667.84;5051651;28;20208;-55
2022/07/12 06:44:32;;;;;;;6.33;4.40;;;;;;;22.00;55.12;94667.00;5049892;28;20209;-55
2022/07/12 06:47:16;;;;;;;4.27;3.57;;;;;;;22.06;57.18;94670.09;5051388;28;20213;-55
2022/07/12 06:50:01;;;;;;;4.03;3.60;;;;;;;22.25;56.45;94670.84;5052234;28;20313;-55
2022/07/12 06:52:45;;;;;;;3.83;3.13;;;;;;;21.84;58.21;94671.31;5042947;28;20271;-55
2022/07/12 06:55:30;;;;;;;3.33;3.03;;;;;;;21.11;60.54;94671.75;5048909;28;20206;-55
2022/07/12 06:58:14;;;;;;;4.07;3.00;;;;;;;21.64;59.39;94674.78;5052408;28;20260;-55
2022/07/12 07:00:58;;;;;;;5.50;3.27;;;;;;;22.08;57.21;94675.91;5048778;28;20682;-55
2022/07/12 07:03:42;;;;;;;4.33;3.93;;;;;;;21.81;56.79;94676.19;5051642;28;20225;-55
2022/07/12 07:06:26;;;;;;;3.60;3.23;;;;;;;21.81;56.57;94676.19;5051345;28;20264;-55
2022/07/12 07:09:10;;;;;;;3.58;3.13;;;;;;;22.36;56.41;94670.56;5048493;28;20248;-55
2022/07/12 07:11:54;;;;;;;3.57;2.83;;;;;;;22.78;53.94;94679.31;5048893;28;20646;-54
2022/07/12 07:14:38;;;;;;;3.30;1.90;;;;;;;22.92;53.32;94677.75;5044883;28;20205;-55
2022/07/12 07:17:22;;;;;;;3.25;2.20;;;;;;;23.34;51.83;94677.81;5042411;28;20623;-55
2022/07/12 07:20:06;;;;;;;1.87;1.77;;;;;;;23.55;51.03;94676.44;5049649;28;20281;-55
2022/07/12 07:22:50;;;;;;;3.75;2.10;;;;;;;23.44;50.21;94675.31;5046181;28;20205;-55
2022/07/12 07:25:34;;;;;;;2.47;2.25;;;;;;;23.68;49.86;94684.78;5048864;28;20255;-55
2022/07/12 07:28:19;;;;;;;3.95;2.00;;;;;;;23.63;50.07;94671.72;5050296;28;20200;-55
2022/07/12 07:31:03;;;;;;;4.22;1.80;;;;;;;23.97;49.52;94680.00;5046371;28;20633;-55
2022/07/12 07:33:47;;;;;;;2.13;1.92;;;;;;;23.77;48.27;94680.78;5050172;28;20244;-55
2022/07/12 07:36:31;;;;;;;2.45;1.85;;;;;;;24.28;48.00;94691.06;5050087;28;20628;-55
2022/07/12 07:39:15;;;;;;;2.25;1.70;;;;;;;24.14;48.99;94688.44;5043475;28;20275;-55
2022/07/12 07:41:59;;;;;;;3.03;1.73;;;;;;;24.48;46.94;94688.84;5048345;28;20310;-55
2022/07/12 07:44:43;;;;;;;2.42;2.20;;;;;;;24.65;48.04;94700.81;5049177;28;21042;-55
2022/07/12 07:47:27;;;;;;;1.92;1.67;;;;;;;24.69;46.81;94692.34;5050247;28;20264;-55
2022/07/12 07:50:11;;;;;;;1.40;1.30;;;;;;;22.94;46.98;94697.84;5046308;28;20245;-55
2022/07/12 07:52:57;;;;;;;2.40;2.10;;;;;;;22.40;51.52;94704.28;5047057;28;20206;-55
2022/07/12 07:55:40;;;;;;;3.15;2.05;;;;;;;22.54;52.06;94699.09;5050988;28;20284;-55
2022/07/12 07:58:24;;;;;;;2.42;2.22;;;;;;;22.93;50.30;94696.38;5061127;28;20696;-55
2022/07/12 08:01:09;;;;;;;2.42;2.13;;;;;;;23.53;49.04;94691.38;5049952;28;20205;-55
2022/07/12 08:03:53;;;;;;;2.00;1.80;;;;;;;23.81;46.79;94702.38;5050650;28;20262;-54
2022/07/12 08:06:37;;;;;;;2.53;1.27;;;;;;;23.45;46.14;94699.69;5044819;28;20205;-55
2022/07/12 08:09:22;;;;;;;2.55;1.10;;;;;;;23.61;44.24;94685.97;5035301;28;20701;-55
2022/07/12 08:12:06;;;;;;;1.35;1.10;;;;;;;23.96;44.22;94704.28;5047277;28;20291;-55
2022/07/12 08:14:50;;;;;;;5.28;1.30;;;;;;;24.14;45.27;94699.91;5046370;28;20702;-55
2022/07/12 08:17:36;;;;;;;1.20;1.10;;;;;;;23.93;45.32;94702.78;5049588;28;20201;-55
2022/07/12 08:20:21;;;;;;;2.40;1.33;;;;;;;24.40;43.84;94702.91;5048195;28;20197;-55
2022/07/12 08:23:06;;;;;;;1.42;1.33;;;;;;;24.26;43.66;94711.06;5046144;28;20200;-55
2022/07/12 08:25:50;;;;;;;1.42;1.10;;;;;;;23.30;45.93;94692.72;5050307;28;20220;-55
2022/07/12 08:28:34;;;;;;;1.48;1.38;;;;;;;23.75;45.01;94689.31;5050517;28;20201;-55
2022/07/12 08:31:18;;;;;;;2.80;1.20;;;;;;;23.98;45.38;94698.66;5047276;28;20293;-55
2022/07/12 08:34:02;;;;;;;1.30;1.13;;;;;;;23.79;45.68;94706.63;5048076;28;20713;-54
2022/07/12 08:36:46;;;;;;;1.60;1.50;;;;;;;23.28;44.26;94709.06;5050304;28;20193;-54
2022/07/12 08:39:30;;;;;;;1.50;1.25;;;;;;;23.72;43.96;94707.81;5049805;28;20202;-55
2022/07/12 08:42:16;;;;;;;1.67;1.30;;;;;;;24.14;43.99;94710.63;5048551;28;20248;-54
2022/07/12 08:45:00;;;;;;;1.00;1.00;;;;;;;24.50;40.92;94708.97;5051896;28;20622;-54
2022/07/12 08:47:44;;;;;;;2.80;1.00;;;;;;;24.52;41.90;94709.03;5048608;28;20636;-54
2022/07/12 08:50:28;;;;;;;4.40;1.00;;;;;;;24.69;42.11;94715.28;5054371;28;20257;-55
2022/07/12 08:53:12;;;;;;;2.25;1.20;;;;;;;24.51;41.40;94713.28;5052700;28;20579;-54
2022/07/12 08:55:57;;;;;;;1.30;1.20;;;;;;;24.52;43.06;94719.75;5050588;28;20209;-55
2022/07/12 08:58:40;;;;;;;4.03;1.50;;;;;;;23.42;45.27;94726.72;5053821;28;20259;-54
2022/07/12 09:01:51;;;;;;;1.55;1.23;;;;;;;23.53;44.86;94717.13;5052011;28;20264;-54
2022/07/12 09:04:35;;;;;;;3.40;1.35;;;;;;;24.28;43.27;94719.72;5047703;28;20328;-55
2022/07/12 09:07:20;;;;;;;1.13;0.95;;;;;;;25.18;41.40;94718.22;5053384;28;20643;-54
2022/07/12 09:10:09;;;;;;;1.20;1.10;;;;;;;24.49;42.86;94733.31;5051516;28;20275;-54
2022/07/12 09:12:53;;;;;;;1.40;1.13;;;;;;;24.49;41.92;94735.44;5051949;28;20233;-54
2022/07/12 09:15:37;;;;;;;3.28;1.17;;;;;;;24.54;42.79;94729.16;5048000;28;20197;-54
2022/07/12 09:18:28;;;;;;;1.10;1.10;;;;;;;25.54;39.89;94723.53;5051972;28;20252;-54
2022/07/12 09:21:51;;;;;;;1.15;0.95;;;;;;;26.60;37.55;94738.53;5049463;28;20702;-54
2022/07/12 09:24:36;;;;;;;1.20;1.10;;;;;;;26.91;36.95;94729.94;5051880;28;20233;-54
2022/07/12 09:27:26;;;;;;;0.75;0.75;;;;;;;26.78;37.58;94733.97;5053978;28;20256;-54
2022/07/12 09:30:11;;;;;;;0.77;0.77;;;;;;;26.61;37.69;94737.84;5052834;28;20272;-54
2022/07/12 09:36:10;;;;;;;1.40;0.85;;;;;;;24.21;40.88;94732.38;5051314;28;20208;-54
2022/07/12 09:39:00;;;;;;;1.35;0.90;;;;;;;23.73;42.22;94732.16;5051481;28;20209;-54
2022/07/12 09:41:45;;;;;;;1.10;1.10;;;;;;;24.57;42.12;94733.53;5052647;28;20222;-54
2022/07/12 09:44:30;;;;;;;1.15;1.05;;;;;;;26.57;38.76;94738.50;5050789;28;20283;-54
2022/07/12 09:47:17;;;;;;;1.45;1.10;;;;;;;27.36;37.08;94736.69;5052884;28;20209;-54
2022/07/12 09:50:03;;;;;;;1.20;1.10;;;;;;;26.79;37.91;94738.28;5053032;28;20360;-54
2022/07/12 09:52:48;;;;;;;0.93;0.90;;;;;;;26.79;37.13;94744.03;5045174;28;20205;-55
2022/07/12 09:55:34;;;;;;;2.35;1.23;;;;;;;26.95;36.85;94744.44;5052206;28;20248;-54
2022/07/12 09:58:25;;;;;;;1.10;1.00;;;;;;;26.70;36.73;94759.63;5053362;28;20205;-54
2022/07/12 10:01:11;;;;;;;1.23;1.10;;;;;;;27.02;37.18;94741.69;5051348;28;20737;-54
2022/07/12 10:03:59;;;;;;;2.67;1.20;;;;;;;26.64;38.55;94748.00;5049783;28;20221;-55
2022/07/12 10:06:43;;;;;;;1.30;1.20;;;;;;;25.60;39.18;94750.31;5052185;28;20293;-55
2022/07/12 10:09:28;;;;;;;2.60;1.40;;;;;;;26.62;37.79;94756.56;5041468;28;21045;-54
2022/07/12 10:12:15;;;;;;;2.22;1.20;;;;;;;26.77;37.30;94752.63;5049216;28;20594;-54
2022/07/12 10:15:08;;;;;;;1.10;0.98;;;;;;;28.12;34.73;94751.91;5051975;28;20205;-54
2022/07/12 10:17:56;;;;;;;3.30;1.10;;;;;;;27.94;36.29;94753.72;5051291;28;20263;-55
2022/07/12 10:20:45;;;;;;;1.40;1.02;;;;;;;27.47;36.01;94749.84;5045552;28;20212;-55
2022/07/12 10:23:34;;;;;;;0.98;0.98;;;;;;;26.18;36.70;94748.25;5048589;28;20197;-54
2022/07/12 10:26:24;;;;;;;2.67;1.00;;;;;;;26.67;36.82;94751.63;5050668;28;20251;-54
2022/07/12 10:29:09;;;;;;;2.25;0.93;;;;;;;26.94;37.66;94754.47;5051830;28;20636;-54
2022/07/12 10:31:53;;;;;;;1.60;1.23;;;;;;;25.82;39.35;94747.31;5044347;28;20675;-54
2022/07/12 10:34:37;;;;;;;1.48;1.38;;;;;;;26.16;37.72;94745.34;5050865;28;20228;-55
2022/07/12 10:37:21;;;;;;;3.72;1.30;;;;;;;26.63;37.91;94746.53;5050859;28;20236;-54
2022/07/12 10:40:17;;;;;;;2.13;1.50;;;;;;;26.95;36.55;94749.47;5044496;28;20198;-55
2022/07/12 10:43:01;;;;;;;1.30;1.10;;;;;;;27.54;36.77;94748.59;5049594;28;20301;-54
2022/07/12 10:45:49;;;;;;;1.42;1.33;;;;;;;28.21;34.87;94747.03;5052279;28;20297;-55
2022/07/12 10:48:33;;;;;;;1.85;1.08;;;;;;;27.77;35.67;94746.91;5045332;28;20210;-55
2022/07/12 10:51:21;;;;;;;2.30;1.30;;;;;;;27.83;35.00;94749.91;5050275;28;20283;-55
2022/07/12 10:54:24;;;;;;;1.00;1.00;;;;;;;29.42;33.67;94741.75;5051565;28;20813;-54
2022/07/12 10:57:08;;;;;;;2.47;0.93;;;;;;;29.05;32.91;94737.59;5045382;28;20289;-54
2022/07/12 10:59:54;;;;;;;0.80;0.80;;;;;;;28.48;33.52;94739.56;5052067;28;20300;-54
2022/07/12 11:02:38;;;;;;;1.10;0.88;;;;;;;28.03;33.25;94746.66;5046703;28;20200;-54
2022/07/12 11:05:26;;;;;;;1.08;1.02;;;;;;;26.43;36.83;94743.16;5051292;28;20201;-54
2022/07/12 11:08:14;;;;;;;0.77;0.77;;;;;;;27.57;35.22;94741.47;5053091;28;20277;-55
2022/07/12 11:10:58;;;;;;;1.08;0.98;;;;;;;26.64;36.81;94748.00;5044608;28;20229;-54
2022/07/12 11:13:42;;;;;;;2.17;1.00;;;;;;;26.46;38.73;94741.81;5050202;28;20590;-54
2022/07/12 11:16:27;;;;;;;1.63;1.00;;;;;;;26.46;37.62;94741.81;5051701;28;20202;-54
2022/07/12 11:19:11;;;;;;;2.22;1.10;;;;;;;26.60;37.51;94750.78;5051052;28;20206;-54
2022/07/12 11:21:57;;;;;;;2.85;1.17;;;;;;;26.53;37.73;94741.28;5044014;28;20194;-54
2022/07/12 11:24:41;;;;;;;1.15;1.05;;;;;;;26.22;37.91;94736.16;5050822;28;20690;-54
2022/07/12 11:27:27;;;;;;;2.92;1.13;;;;;;;26.89;36.50;94735.69;5051785;28;20202;-54
2022/07/12 11:30:13;;;;;;;1.02;0.93;;;;;;;27.32;35.58;94734.47;5050128;28;20279;-54
2022/07/12 11:32:58;;;;;;;2.15;0.90;;;;;;;27.20;35.46;94734.19;5049406;28;20201;-54
2022/07/12 11:35:46;;;;;;;2.55;1.13;;;;;;;27.40;35.30;94731.03;5050988;28;20599;-54
2022/07/12 11:38:31;;;;;;;1.20;1.10;;;;;;;27.60;36.72;94734.31;5042271;28;20221;-54
2022/07/12 11:41:15;;;;;;;1.55;1.40;;;;;;;27.18;36.73;94736.28;5049139;28;20200;-54
2022/07/12 11:43:59;;;;;;;1.30;1.20;;;;;;;27.27;36.73;94727.16;5049738;28;20426;-54
2022/07/12 11:46:49;;;;;;;2.40;1.30;;;;;;;26.37;38.61;94734.38;5051052;28;20265;-54
2022/07/12 11:49:33;;;;;;;1.23;1.20;;;;;;;25.53;41.12;94728.53;5043855;28;20244;-54
2022/07/12 11:52:19;;;;;;;2.05;1.42;;;;;;;26.54;38.36;94719.72;5049907;28;20689;-54
2022/07/12 11:55:07;;;;;;;1.90;1.20;;;;;;;26.77;37.65;94723.88;5051682;28;20272;-54
2022/07/12 11:58:02;;;;;;;2.92;0.90;;;;;;;27.82;35.97;94724.66;5046902;28;20287;-54
2022/07/12 12:00:48;;;;;;;2.88;1.00;;;;;;;28.05;34.79;94726.53;5043541;28;20257;-54
2022/07/12 12:03:42;;;;;;;2.78;1.40;;;;;;;26.48;36.71;94716.69;5051115;28;20225;-55
2022/07/12 12:06:26;;;;;;;1.92;1.23;;;;;;;26.44;38.64;94710.13;5054004;28;20208;-55
2022/07/12 12:09:10;;;;;;;1.13;1.00;;;;;;;27.72;36.11;94717.28;5044254;28;20198;-54
2022/07/12 12:11:54;;;;;;;2.40;1.10;;;;;;;27.23;37.49;94721.31;5049747;28;20300;-54
2022/07/12 12:14:38;;;;;;;2.72;1.13;;;;;;;26.88;36.80;94719.81;5045760;28;20208;-55
2022/07/12 12:17:22;;;;;;;1.20;1.10;;;;;;;27.86;36.35;94708.19;5048532;28;20221;-54
2022/07/12 12:20:18;;;;;;;1.25;1.15;;;;;;;27.94;36.34;94707.63;5054848;28;20217;-55
2022/07/12 12:23:04;;;;;;;3.53;1.00;;;;;;;27.08;37.44;94716.69;5049525;28;20228;-55
2022/07/12 12:25:49;;;;;;;1.08;0.95;;;;;;;27.40;37.24;94705.13;5049750;28;20197;-54
2022/07/12 12:28:50;;;;;;;4.32;1.25;;;;;;;26.52;37.27;94721.84;5046061;28;20200;-54
2022/07/12 12:31:34;;;;;;;0.82;0.82;;;;;;;27.28;36.67;94710.63;5047838;28;20264;-54
2022/07/12 12:34:18;;;;;;;4.60;1.20;;;;;;;27.43;36.56;94717.38;5051446;28;20205;-55
2022/07/12 12:37:03;;;;;;;1.25;0.80;;;;;;;26.53;37.20;94706.78;5048650;28;20297;-54
2022/07/12 12:39:49;;;;;;;1.13;0.82;;;;;;;27.70;36.49;94708.63;5046227;28;20563;-54
2022/07/12 12:42:34;;;;;;;1.77;1.10;;;;;;;27.68;36.65;94717.22;5048165;28;20241;-55
2022/07/12 12:45:21;;;;;;;1.30;0.80;;;;;;;27.16;37.07;94705.31;5054153;28;20689;-55
2022/07/12 12:48:05;;;;;;;1.08;0.80;;;;;;;26.74;37.81;94713.72;5050225;28;20285;-54
2022/07/12 12:50:52;;;;;;;1.75;0.85;;;;;;;27.72;36.04;94708.66;5051227;28;20272;-54
2022/07/12 12:53:38;;;;;;;2.88;1.00;;;;;;;27.99;35.78;94717.78;5048814;28;20567;-54
2022/07/12 12:56:23;;;;;;;1.75;0.90;;;;;;;26.45;36.93;94711.59;5054504;28;20825;-54
2022/07/12 12:59:07;;;;;;;2.45;0.77;;;;;;;25.77;38.31;94714.16;5053209;28;20237;-54
2022/07/12 13:01:52;;;;;;;0.77;0.77;;;;;;;26.60;36.85;94719.16;5047779;28;20201;-54
2022/07/12 13:04:37;;;;;;;2.55;1.00;;;;;;;25.98;37.49;94707.53;5042605;28;20607;-55
2022/07/12 13:07:22;;;;;;;1.45;0.90;;;;;;;26.45;37.80;94717.34;5053597;28;20309;-54